Time;durP1;ratioP1;P1;durP2;ratioP2;P2;SDS_P1;SDS_P2;PMS_P1;PMS_P2;Temp;Humidity;BMP_temperature;BMP_pressure;BME280_temperature;BME280_humidity;BME280_pressure;Samples;Min_cycle;Max_cycle;Signal;HPM_P1;HPM_P2
2023/04/01 00:01:05;;;;;;;5.43;5.07;;;10.00;99.90;;;;;;5045039;28;20248;-65
2023/04/01 00:03:32;;;;;;;5.10;4.80;;;10.10;99.90;;;;;;5053980;28;20178;-64
2023/04/01 00:05:59;;;;;;;5.03;4.73;;;10.10;99.90;;;;;;5039013;28;20205;-64
2023/04/01 00:08:26;;;;;;;5.10;4.90;;;10.10;99.90;;;;;;5033792;28;20516;-65
2023/04/01 00:10:52;;;;;;;5.33;5.13;;;10.20;99.90;;;;;;5045575;28;20253;-64
2023/04/01 00:13:18;;;;;;;5.80;5.50;;;10.20;99.90;;;;;;5053507;28;20633;-64
2023/04/01 00:15:43;;;;;;;5.20;5.00;;;10.20;99.90;;;;;;5042081;28;20184;-65
2023/04/01 00:18:09;;;;;;;4.60;4.40;;;10.20;99.90;;;;;;5033632;28;20554;-64
2023/04/01 00:20:35;;;;;;;5.00;4.60;;;10.30;99.90;;;;;;5024239;28;20263;-64
2023/04/01 00:23:01;;;;;;;5.20;4.80;;;10.30;99.90;;;;;;5053344;28;20179;-65
2023/04/01 00:25:27;;;;;;;4.50;4.30;;;10.30;99.90;;;;;;5045347;28;20253;-65
2023/04/01 00:27:52;;;;;;;5.53;5.13;;;10.30;99.90;;;;;;5033303;28;20301;-66
2023/04/01 00:30:18;;;;;;;5.10;4.80;;;10.30;99.90;;;;;;5020510;28;20550;-66
2023/04/01 00:32:44;;;;;;;4.77;4.57;;;10.30;99.90;;;;;;5053046;28;20167;-65
2023/04/01 00:35:10;;;;;;;4.90;4.60;;;10.30;99.90;;;;;;5048821;28;20179;-66
2023/04/01 00:37:37;;;;;;;5.33;5.13;;;10.30;99.90;;;;;;5033152;28;20171;-66
2023/04/01 00:40:05;;;;;;;6.03;5.73;;;10.30;99.90;;;;;;5035117;28;20234;-65
2023/04/01 00:42:30;;;;;;;5.27;5.00;;;10.30;99.90;;;;;;5052911;28;20175;-66
2023/04/01 00:44:56;;;;;;;4.97;4.77;;;10.30;99.90;;;;;;5051325;28;20179;-66
2023/04/01 00:47:25;;;;;;;4.60;4.40;;;10.30;99.90;;;;;;5032854;28;20205;-65
2023/04/01 00:49:54;;;;;;;5.37;4.97;;;10.30;99.90;;;;;;5041209;28;20246;-66
2023/04/01 00:52:25;;;;;;;5.07;4.87;;;10.30;99.90;;;;;;5032690;28;20174;-66
2023/04/01 00:54:55;;;;;;;5.20;4.70;;;10.30;99.90;;;;;;5046920;28;20185;-66
2023/04/01 00:57:33;;;;;;;5.03;4.83;;;10.30;99.90;;;;;;5035103;28;20672;-65
2023/04/01 00:59:59;;;;;;;4.87;4.67;;;10.30;99.90;;;;;;5037042;28;20298;-66
2023/04/01 01:02:25;;;;;;;4.70;4.50;;;10.30;99.90;;;;;;5032498;28;20278;-65
2023/04/01 01:04:51;;;;;;;5.40;5.10;;;10.30;99.90;;;;;;5051289;28;20179;-66
2023/04/01 01:07:22;;;;;;;4.80;4.60;;;10.20;99.90;;;;;;5052321;28;20213;-65
2023/04/01 01:09:52;;;;;;;4.90;4.60;;;10.20;99.90;;;;;;5032934;28;20196;-65
2023/04/01 01:12:47;;;;;;;5.13;4.70;;;10.20;99.90;;;;;;5032377;28;20564;-66
2023/04/01 01:15:51;;;;;;;5.27;4.87;;;10.20;99.90;;;;;;5012954;28;20176;-66
2023/04/01 01:18:27;;;;;;;4.77;4.50;;;10.10;99.90;;;;;;5029399;28;20531;-65
2023/04/01 01:21:19;;;;;;;4.47;4.27;;;10.10;99.90;;;;;;5051821;28;20241;-66
2023/04/01 01:24:10;;;;;;;5.57;5.10;;;10.10;99.90;;;;;;5039608;28;20175;-65
2023/04/01 01:27:02;;;;;;;4.70;4.50;;;10.10;99.90;;;;;;5032037;28;20608;-65
2023/04/01 01:29:46;;;;;;;5.10;4.70;;;10.10;99.90;;;;;;5046888;28;20179;-65
2023/04/01 01:32:31;;;;;;;4.97;4.77;;;10.10;99.90;;;;;;5032092;28;20175;-65
2023/04/01 01:35:33;;;;;;;4.90;4.60;;;10.10;99.90;;;;;;5012453;28;20203;-65
2023/04/01 01:38:12;;;;;;;5.40;5.07;;;10.10;99.90;;;;;;5021018;28;20275;-65
2023/04/01 01:40:42;;;;;;;4.73;4.53;;;10.00;99.90;;;;;;5051300;28;20209;-65
2023/04/01 01:43:13;;;;;;;5.40;5.00;;;10.00;99.90;;;;;;5050221;28;20648;-66
2023/04/01 01:45:44;;;;;;;4.90;4.70;;;9.90;99.90;;;;;;5021298;28;20250;-66
2023/04/01 01:48:11;;;;;;;5.10;4.90;;;9.90;99.90;;;;;;5031988;28;20177;-65
2023/04/01 01:50:37;;;;;;;5.17;4.97;;;9.90;99.90;;;;;;5031233;28;20188;-65
2023/04/01 01:53:09;;;;;;;5.17;4.97;;;9.80;99.90;;;;;;5032179;28;20167;-65
2023/04/01 01:55:38;;;;;;;4.70;4.50;;;9.80;99.90;;;;;;5031759;28;20179;-65
2023/04/01 01:58:16;;;;;;;4.57;4.37;;;9.80;99.90;;;;;;5040355;28;20309;-65
2023/04/01 02:00:45;;;;;;;4.80;4.60;;;9.70;99.90;;;;;;5051125;28;20249;-65
2023/04/01 02:03:14;;;;;;;4.80;4.60;;;9.70;99.90;;;;;;5042289;28;20649;-65
2023/04/01 02:05:40;;;;;;;5.40;5.20;;;9.70;99.90;;;;;;5031606;28;20202;-66
2023/04/01 02:08:21;;;;;;;4.97;4.77;;;9.60;99.90;;;;;;5039625;28;20190;-65
2023/04/01 02:10:57;;;;;;;5.40;5.20;;;9.60;99.90;;;;;;5051078;28;20279;-66
2023/04/01 02:14:01;;;;;;;5.77;5.27;;;9.50;99.90;;;;;;5041289;28;20175;-66
2023/04/01 02:16:40;;;;;;;6.40;6.00;;;9.50;99.90;;;;;;5000138;28;20241;-66
2023/04/01 02:19:07;;;;;;;6.17;5.97;;;9.50;99.90;;;;;;5028602;28;20175;-66
2023/04/01 02:21:34;;;;;;;6.70;6.37;;;9.40;99.90;;;;;;5051177;28;20195;-66
2023/04/01 02:24:04;;;;;;;5.40;5.20;;;9.40;99.90;;;;;;5049596;28;20636;-66
2023/04/01 02:26:30;;;;;;;7.00;6.70;;;9.30;99.90;;;;;;5051212;28;20198;-66
2023/04/01 02:28:58;;;;;;;5.20;5.00;;;9.30;99.90;;;;;;5020530;28;20641;-66
2023/04/01 02:31:25;;;;;;;5.23;5.03;;;9.30;99.90;;;;;;5030981;28;20274;-66
2023/04/01 02:33:51;;;;;;;4.90;4.70;;;9.30;99.90;;;;;;5024706;28;20170;-67
2023/04/01 02:36:17;;;;;;;5.83;5.53;;;9.30;99.90;;;;;;5051197;28;20685;-66
2023/04/01 02:38:45;;;;;;;5.60;5.40;;;9.30;99.90;;;;;;5041159;28;20230;-66
2023/04/01 02:41:11;;;;;;;5.27;5.07;;;9.30;99.90;;;;;;5030809;28;20242;-65
2023/04/01 02:43:37;;;;;;;5.57;5.17;;;9.30;99.90;;;;;;5039493;28;20278;-65
2023/04/01 02:46:03;;;;;;;4.93;4.73;;;9.30;99.90;;;;;;5051242;28;20290;-66
2023/04/01 02:48:29;;;;;;;5.30;5.10;;;9.30;99.90;;;;;;5049361;28;20171;-66
2023/04/01 02:50:55;;;;;;;4.60;4.40;;;9.30;99.90;;;;;;5050630;28;20613;-66
2023/04/01 02:53:21;;;;;;;4.50;4.30;;;9.30;99.90;;;;;;5045601;28;20282;-65
2023/04/01 02:55:49;;;;;;;4.77;4.57;;;9.30;99.90;;;;;;5031018;28;20211;-66
2023/04/01 02:58:15;;;;;;;4.73;4.53;;;9.30;99.90;;;;;;5030346;28;20184;-66
2023/04/01 03:00:40;;;;;;;5.07;4.67;;;9.40;99.90;;;;;;5030451;28;20205;-66
2023/04/01 03:03:06;;;;;;;4.90;4.70;;;9.30;99.90;;;;;;5032933;28;20175;-66
2023/04/01 03:05:32;;;;;;;5.20;5.00;;;9.40;99.90;;;;;;5050927;28;20190;-66
2023/04/01 03:07:57;;;;;;;4.63;4.43;;;9.40;99.90;;;;;;5050368;28;20258;-66
2023/04/01 03:10:23;;;;;;;5.20;4.90;;;9.40;99.90;;;;;;5030566;28;20477;-66
2023/04/01 03:12:48;;;;;;;4.80;4.60;;;9.40;99.90;;;;;;5030995;28;20224;-65
2023/04/01 03:15:14;;;;;;;5.27;5.07;;;9.40;99.90;;;;;;5049414;28;20190;-65
2023/04/01 03:17:41;;;;;;;5.27;4.80;;;9.40;99.90;;;;;;5035122;28;20172;-66
2023/04/01 03:20:08;;;;;;;6.07;5.87;;;9.50;99.90;;;;;;5030582;28;20187;-65
2023/04/01 03:22:34;;;;;;;5.33;5.13;;;9.50;99.90;;;;;;5044499;28;20182;-66
2023/04/01 03:25:01;;;;;;;5.13;4.87;;;9.50;99.90;;;;;;5050768;28;20173;-66
2023/04/01 03:27:26;;;;;;;4.97;4.77;;;9.50;99.90;;;;;;5038126;28;20218;-66
2023/04/01 03:29:52;;;;;;;4.90;4.70;;;9.50;99.90;;;;;;5040353;28;20594;-66
2023/04/01 03:32:18;;;;;;;4.70;4.50;;;9.50;99.90;;;;;;5054323;28;20167;-66
2023/04/01 03:34:43;;;;;;;4.50;4.30;;;9.50;99.90;;;;;;5048664;28;20167;-66
2023/04/01 03:37:09;;;;;;;4.90;4.70;;;9.50;99.90;;;;;;5034416;28;20174;-65
2023/04/01 03:39:35;;;;;;;5.03;4.83;;;9.50;99.90;;;;;;5037097;28;20194;-66
2023/04/01 03:42:00;;;;;;;5.43;5.23;;;9.50;99.90;;;;;;5054198;28;20179;-66
2023/04/01 03:44:30;;;;;;;5.10;4.80;;;9.50;99.90;;;;;;5051947;28;20173;-66
2023/04/01 03:46:55;;;;;;;4.57;4.37;;;9.50;99.90;;;;;;5034047;28;20795;-66
2023/04/01 03:49:22;;;;;;;5.00;4.80;;;9.50;99.90;;;;;;5039183;28;20714;-66
2023/04/01 03:51:48;;;;;;;4.73;4.53;;;9.40;99.90;;;;;;5053882;28;20174;-66
2023/04/01 03:54:13;;;;;;;5.00;4.80;;;9.40;99.90;;;;;;5049757;28;20618;-66
2023/04/01 03:56:39;;;;;;;5.03;4.60;;;9.40;99.90;;;;;;5033692;28;20175;-66
2023/04/01 03:59:06;;;;;;;4.83;4.63;;;9.40;99.90;;;;;;5035553;28;20180;-66
2023/04/01 04:01:32;;;;;;;4.83;4.63;;;9.40;99.90;;;;;;5053636;28;20624;-66
2023/04/01 04:03:59;;;;;;;4.93;4.73;;;9.40;99.90;;;;;;5052914;28;20183;-66
2023/04/01 04:06:25;;;;;;;4.90;4.70;;;9.40;99.90;;;;;;5015876;28;20246;-66
2023/04/01 04:08:50;;;;;;;5.00;4.80;;;9.40;99.90;;;;;;5033613;28;20193;-66
2023/04/01 04:11:16;;;;;;;5.03;4.83;;;9.40;99.90;;;;;;5051759;28;20199;-65
2023/04/01 04:13:42;;;;;;;5.30;5.10;;;9.40;99.90;;;;;;5053443;28;20174;-66
2023/04/01 04:16:09;;;;;;;5.57;5.27;;;9.40;99.90;;;;;;5036282;28;20237;-66
2023/04/01 04:18:35;;;;;;;5.40;5.10;;;9.40;99.90;;;;;;5044423;28;20182;-66
2023/04/01 04:21:01;;;;;;;5.13;4.93;;;9.40;99.90;;;;;;5052929;28;20198;-66
2023/04/01 04:23:28;;;;;;;5.23;5.03;;;9.40;99.90;;;;;;5043742;28;20711;-66
2023/04/01 04:26:01;;;;;;;5.57;5.27;;;9.40;99.90;;;;;;5033280;28;20662;-66
2023/04/01 04:28:27;;;;;;;4.90;4.70;;;9.40;99.90;;;;;;5041926;28;20265;-66
2023/04/01 04:30:54;;;;;;;4.77;4.57;;;9.40;99.90;;;;;;5052648;28;20205;-67
2023/04/01 04:33:21;;;;;;;4.70;4.50;;;9.40;99.90;;;;;;5045844;28;20541;-67
2023/04/01 04:35:47;;;;;;;4.80;4.60;;;9.40;99.90;;;;;;5033088;28;20176;-66
2023/04/01 04:38:13;;;;;;;5.20;5.00;;;9.50;99.90;;;;;;5038412;28;20560;-66
2023/04/01 04:40:40;;;;;;;5.17;4.97;;;9.40;99.90;;;;;;5051710;28;20226;-66
2023/04/01 04:43:05;;;;;;;5.17;4.97;;;9.40;99.90;;;;;;5043397;28;20194;-67
2023/04/01 04:45:31;;;;;;;4.90;4.70;;;9.40;99.90;;;;;;5032923;28;20184;-67
2023/04/01 04:47:57;;;;;;;4.80;4.60;;;9.40;99.90;;;;;;5040417;28;20206;-67
2023/04/01 04:50:23;;;;;;;4.83;4.63;;;9.40;99.90;;;;;;5052446;28;20256;-66
2023/04/01 04:52:49;;;;;;;4.83;4.63;;;9.40;99.90;;;;;;5046820;28;20182;-67
2023/04/01 04:55:15;;;;;;;5.10;4.90;;;9.40;99.90;;;;;;5033031;28;20258;-66
2023/04/01 04:57:41;;;;;;;4.90;4.70;;;9.40;99.90;;;;;;5036659;28;20179;-66
2023/04/01 05:00:09;;;;;;;4.83;4.63;;;9.40;99.90;;;;;;5052361;28;20214;-66
2023/04/01 05:02:35;;;;;;;4.80;4.60;;;9.40;99.90;;;;;;5049656;28;20193;-67
2023/04/01 05:05:01;;;;;;;5.37;5.07;;;9.40;99.90;;;;;;5032539;28;20263;-67
2023/04/01 05:07:27;;;;;;;4.80;4.60;;;9.40;99.90;;;;;;5033193;28;20203;-66
2023/04/01 05:09:52;;;;;;;5.07;4.87;;;9.40;99.90;;;;;;5052018;28;20194;-66
2023/04/01 05:12:18;;;;;;;5.00;4.80;;;9.40;99.90;;;;;;5052608;28;20352;-66
2023/04/01 05:14:44;;;;;;;5.13;4.93;;;9.40;99.90;;;;;;5033179;28;20183;-66
2023/04/01 05:17:10;;;;;;;5.10;4.90;;;9.40;99.90;;;;;;5032566;28;20186;-66
2023/04/01 05:19:36;;;;;;;4.90;4.70;;;9.50;99.90;;;;;;5048944;28;20336;-66
2023/04/01 05:22:02;;;;;;;4.97;4.70;;;9.40;99.90;;;;;;5052163;28;20245;-66
2023/04/01 05:24:27;;;;;;;5.57;5.10;;;9.50;99.90;;;;;;5036759;28;20186;-66
2023/04/01 05:26:53;;;;;;;5.13;4.93;;;9.50;99.90;;;;;;5032059;28;20211;-66
2023/04/01 05:29:18;;;;;;;4.90;4.70;;;9.50;99.90;;;;;;5035259;28;20573;-66
2023/04/01 05:31:44;;;;;;;4.93;4.73;;;9.50;99.90;;;;;;5032092;28;20622;-67
2023/04/01 05:34:10;;;;;;;5.10;4.90;;;9.50;99.90;;;;;;5047050;28;20197;-66
2023/04/01 05:36:36;;;;;;;4.70;4.50;;;9.50;99.90;;;;;;5040421;28;20179;-66
2023/04/01 05:39:02;;;;;;;5.63;5.33;;;9.50;99.90;;;;;;5031882;28;20190;-66
2023/04/01 05:41:28;;;;;;;4.93;4.73;;;9.50;99.90;;;;;;5040895;28;20632;-66
2023/04/01 05:43:53;;;;;;;5.43;5.23;;;9.50;99.90;;;;;;5051688;28;20178;-66
2023/04/01 05:46:19;;;;;;;5.40;5.10;;;9.50;99.90;;;;;;5029710;28;20214;-66
2023/04/01 05:48:44;;;;;;;5.27;5.07;;;9.50;99.90;;;;;;5031604;28;20197;-66
2023/04/01 05:51:14;;;;;;;5.20;5.00;;;9.50;99.90;;;;;;5031117;28;20253;-66
2023/04/01 05:53:40;;;;;;;5.50;5.20;;;9.50;99.90;;;;;;5031644;28;20176;-67
2023/04/01 05:56:08;;;;;;;5.20;5.00;;;9.50;99.90;;;;;;5035609;28;20636;-67
2023/04/01 05:58:33;;;;;;;5.33;5.07;;;9.50;99.90;;;;;;5051499;28;20174;-66
2023/04/01 06:01:05;;;;;;;5.10;4.90;;;9.60;99.90;;;;;;5048636;28;20216;-67
2023/04/01 06:03:30;;;;;;;5.43;5.13;;;9.60;99.90;;;;;;5031694;28;20647;-66
2023/04/01 06:05:56;;;;;;;5.60;5.40;;;9.60;99.90;;;;;;5032469;28;20210;-66
2023/04/01 06:08:21;;;;;;;5.37;5.07;;;9.50;99.90;;;;;;5051882;28;20199;-66
2023/04/01 06:11:18;;;;;;;5.00;4.80;;;9.50;99.90;;;;;;5051039;28;20612;-67
2023/04/01 06:13:52;;;;;;;4.70;4.50;;;9.50;99.90;;;;;;5011820;28;20180;-66
2023/04/01 06:16:35;;;;;;;4.70;4.50;;;9.50;99.90;;;;;;5017986;28;20191;-67
2023/04/01 06:19:32;;;;;;;5.50;5.23;;;9.60;99.90;;;;;;5051469;28;20261;-66
2023/04/01 06:22:14;;;;;;;5.53;5.07;;;9.60;99.90;;;;;;5043377;28;20554;-67
2023/04/01 06:25:14;;;;;;;5.90;5.60;;;9.60;99.90;;;;;;5031396;28;20182;-66
2023/04/01 06:27:52;;;;;;;7.50;7.20;;;9.60;99.90;;;;;;5030492;28;20211;-66
2023/04/01 06:30:58;;;;;;;4.93;4.73;;;9.70;99.90;;;;;;5030810;28;20282;-66
2023/04/01 06:34:02;;;;;;;5.50;5.20;;;9.70;99.90;;;;;;5000435;28;20564;-66
2023/04/01 06:36:51;;;;;;;9.70;9.20;;;9.70;99.90;;;;;;5019899;28;20194;-66
2023/04/01 06:39:46;;;;;;;4.83;4.63;;;9.70;99.90;;;;;;5050729;28;20220;-66
2023/04/01 06:42:40;;;;;;;6.00;5.33;;;9.80;99.90;;;;;;5043955;28;20194;-66
2023/04/01 06:45:29;;;;;;;6.23;5.87;;;9.80;99.90;;;;;;5031246;28;20206;-66
2023/04/01 06:48:29;;;;;;;5.33;5.03;;;9.80;99.90;;;;;;5032164;28;20638;-66
2023/04/01 06:51:26;;;;;;;5.33;5.03;;;9.80;99.90;;;;;;5007164;28;20199;-67
2023/04/01 06:53:59;;;;;;;5.23;4.90;;;9.80;99.90;;;;;;5033249;28;20179;-65
2023/04/01 06:56:28;;;;;;;5.13;4.93;;;9.90;99.90;;;;;;5032255;28;20213;-66
2023/04/01 06:59:12;;;;;;;5.80;5.43;;;9.90;99.90;;;;;;5014219;28;20754;-66
2023/04/01 07:01:40;;;;;;;5.00;4.70;;;9.80;99.90;;;;;;5030886;28;20720;-65
2023/04/01 07:04:21;;;;;;;4.87;4.67;;;9.70;99.90;;;;;;5052528;28;20591;-66
2023/04/01 07:07:01;;;;;;;5.03;4.83;;;9.70;99.90;;;;;;5036231;28;20221;-65
2023/04/01 07:09:40;;;;;;;5.10;4.90;;;9.70;99.90;;;;;;5014823;28;20164;-66
2023/04/01 07:12:30;;;;;;;5.53;5.30;;;9.70;99.90;;;;;;5019004;28;20165;-66
2023/04/01 07:14:57;;;;;;;5.53;5.23;;;9.70;99.90;;;;;;5054354;28;20179;-66
2023/04/01 07:17:33;;;;;;;5.30;5.10;;;9.70;99.90;;;;;;5053135;28;20210;-66
2023/04/01 07:20:05;;;;;;;5.00;4.80;;;9.70;99.90;;;;;;5054180;28;20199;-66
2023/04/01 07:22:38;;;;;;;5.60;5.30;;;9.70;99.90;;;;;;5050167;28;20545;-65
2023/04/01 07:25:19;;;;;;;5.70;5.40;;;9.70;99.90;;;;;;5032319;28;20829;-66
2023/04/01 07:27:46;;;;;;;6.40;6.00;;;9.70;99.90;;;;;;5044104;28;20175;-66
2023/04/01 07:30:21;;;;;;;5.70;5.43;;;9.70;99.90;;;;;;5040462;28;20202;-67
2023/04/01 07:33:10;;;;;;;6.30;5.90;;;9.70;99.90;;;;;;5054239;28;20716;-66
2023/04/01 07:35:46;;;;;;;6.17;5.80;;;9.70;99.90;;;;;;5044573;28;20194;-67
2023/04/01 07:38:25;;;;;;;5.70;5.40;;;9.70;99.90;;;;;;5033842;28;20181;-66
2023/04/01 07:41:32;;;;;;;12.80;8.53;;;9.70;99.90;;;;;;5034374;28;20207;-66
2023/04/01 07:44:12;;;;;;;6.03;5.73;;;9.80;99.90;;;;;;5049015;28;20262;-67
2023/04/01 07:46:51;;;;;;;5.50;5.20;;;9.80;99.90;;;;;;5033767;28;20206;-66
2023/04/01 07:49:40;;;;;;;5.63;5.37;;;9.80;99.90;;;;;;5025475;28;20177;-66
2023/04/01 07:52:13;;;;;;;6.27;5.77;;;9.90;99.90;;;;;;5053834;28;20241;-66
2023/04/01 07:54:39;;;;;;;5.00;4.80;;;9.90;99.90;;;;;;5041183;28;20180;-66
2023/04/01 07:57:22;;;;;;;5.30;5.10;;;9.90;99.90;;;;;;5031796;28;20649;-67
2023/04/01 08:00:07;;;;;;;5.30;5.00;;;9.90;99.90;;;;;;5045925;28;20199;-66
2023/04/01 08:03:03;;;;;;;5.40;5.10;;;9.90;99.90;;;;;;5053786;28;20175;-66
2023/04/01 08:05:53;;;;;;;5.50;5.30;;;9.80;99.90;;;;;;5035784;28;20183;-66
2023/04/01 08:08:28;;;;;;;5.20;4.90;;;9.80;99.90;;;;;;4995622;28;20211;-66
2023/04/01 08:11:32;;;;;;;5.30;4.97;;;9.80;99.90;;;;;;5049788;28;20723;-66
2023/04/01 08:14:06;;;;;;;4.80;4.60;;;9.90;99.90;;;;;;5048873;28;20179;-67
2023/04/01 08:16:45;;;;;;;4.93;4.63;;;9.90;99.90;;;;;;5033547;28;20171;-67
2023/04/01 08:19:20;;;;;;;5.93;5.63;;;9.90;99.90;;;;;;5034256;28;20175;-67
2023/04/01 08:21:50;;;;;;;4.90;4.50;;;9.90;99.90;;;;;;5033199;28;20174;-66
2023/04/01 08:24:40;;;;;;;4.87;4.67;;;9.90;99.90;;;;;;5038052;28;20680;-66
2023/04/01 08:27:18;;;;;;;5.10;4.90;;;10.00;99.90;;;;;;5030795;28;20256;-66
2023/04/01 08:30:13;;;;;;;4.70;4.50;;;10.00;99.90;;;;;;5040384;28;20267;-66
2023/04/01 08:32:42;;;;;;;5.23;4.93;;;10.10;99.90;;;;;;5052780;28;20167;-66
2023/04/01 08:35:26;;;;;;;5.10;4.90;;;10.20;99.90;;;;;;5053404;28;20174;-66
2023/04/01 08:37:56;;;;;;;5.30;5.10;;;10.20;99.90;;;;;;5052750;28;20246;-66
2023/04/01 08:40:40;;;;;;;5.67;5.17;;;10.30;99.90;;;;;;5052510;28;20233;-66
2023/04/01 08:43:22;;;;;;;5.30;5.07;;;10.30;99.90;;;;;;5053112;28;20171;-65
2023/04/01 08:46:06;;;;;;;5.10;4.90;;;10.40;99.90;;;;;;5051919;28;20626;-66
2023/04/01 08:48:40;;;;;;;5.27;4.90;;;10.30;99.90;;;;;;5052865;28;20163;-66
2023/04/01 08:51:38;;;;;;;5.00;4.80;;;10.30;99.90;;;;;;5052374;28;20187;-66
2023/04/01 08:54:15;;;;;;;5.10;4.90;;;10.40;99.90;;;;;;5052660;28;20186;-66
2023/04/01 08:56:50;;;;;;;5.20;5.00;;;10.30;99.90;;;;;;5046814;28;20572;-66
2023/04/01 08:59:37;;;;;;;5.33;5.13;;;10.30;99.90;;;;;;5041086;28;20190;-66
2023/04/01 09:02:22;;;;;;;5.27;5.00;;;10.20;99.90;;;;;;5029986;28;20191;-66
2023/04/01 09:05:02;;;;;;;5.10;4.90;;;10.20;99.90;;;;;;5032261;28;20183;-65
2023/04/01 09:07:52;;;;;;;5.10;4.90;;;10.20;99.90;;;;;;5032199;28;20226;-65
2023/04/01 09:11:01;;;;;;;5.23;5.03;;;10.10;99.90;;;;;;5031844;28;20223;-66
2023/04/01 09:13:45;;;;;;;5.00;4.80;;;10.20;99.90;;;;;;5032822;28;20541;-66
2023/04/01 09:16:27;;;;;;;4.80;4.60;;;10.20;99.90;;;;;;5032710;28;20614;-66
2023/04/01 09:19:09;;;;;;;5.27;4.87;;;10.20;99.90;;;;;;5032026;28;20649;-65
2023/04/01 09:21:59;;;;;;;5.07;4.77;;;10.30;99.90;;;;;;5033230;28;20191;-66
2023/04/01 09:24:36;;;;;;;4.67;4.47;;;10.40;99.90;;;;;;5032836;28;20634;-65
2023/04/01 09:27:02;;;;;;;4.70;4.50;;;10.40;99.90;;;;;;5044459;28;20574;-66
2023/04/01 09:29:36;;;;;;;4.60;4.40;;;10.50;99.90;;;;;;5051927;28;20174;-65
2023/04/01 09:32:27;;;;;;;4.93;4.73;;;10.50;99.90;;;;;;5038898;28;20180;-65
2023/04/01 09:35:20;;;;;;;5.30;5.00;;;10.60;99.90;;;;;;5032021;28;20214;-66
2023/04/01 09:37:49;;;;;;;5.17;4.97;;;10.60;99.90;;;;;;5049915;28;20240;-65
2023/04/01 09:40:18;;;;;;;5.40;5.00;;;10.60;99.90;;;;;;5051217;28;20206;-66
2023/04/01 09:43:03;;;;;;;6.20;5.80;;;10.60;99.90;;;;;;5033899;28;20179;-66
2023/04/01 09:45:55;;;;;;;6.40;5.90;;;10.50;99.90;;;;;;5031917;28;20203;-65
2023/04/01 09:48:48;;;;;;;6.50;6.10;;;10.60;99.90;;;;;;5033970;28;20736;-65
2023/04/01 09:51:43;;;;;;;5.83;5.53;;;10.60;99.90;;;;;;5013823;28;20195;-65
2023/04/01 09:54:24;;;;;;;5.57;5.27;;;10.60;99.90;;;;;;5031744;28;20260;-66
2023/04/01 09:57:05;;;;;;;5.43;5.13;;;10.50;99.90;;;;;;5034992;28;20715;-66
2023/04/01 09:59:49;;;;;;;5.60;5.30;;;10.40;99.90;;;;;;5031314;28;20187;-65
2023/04/01 10:02:26;;;;;;;5.30;5.03;;;10.30;99.90;;;;;;5011900;28;20258;-66
2023/04/01 10:05:13;;;;;;;5.17;4.90;;;10.40;99.90;;;;;;5016522;28;21432;-66
2023/04/01 10:08:12;;;;;;;5.57;5.27;;;10.40;99.90;;;;;;5051392;28;20637;-66
2023/04/01 10:11:15;;;;;;;5.83;5.53;;;10.40;99.90;;;;;;5042663;28;20198;-66
2023/04/01 10:14:07;;;;;;;5.40;5.10;;;10.40;99.90;;;;;;5031432;28;20551;-66
2023/04/01 10:16:42;;;;;;;5.43;5.17;;;10.40;99.90;;;;;;5011639;28;20195;-66
2023/04/01 10:19:13;;;;;;;5.00;4.80;;;10.40;99.90;;;;;;5012795;28;20573;-66
2023/04/01 10:22:17;;;;;;;5.60;5.30;;;10.50;99.90;;;;;;5051185;28;20195;-66
2023/04/01 10:24:52;;;;;;;5.73;5.33;;;10.50;99.90;;;;;;5045948;28;20202;-66
2023/04/01 10:27:42;;;;;;;5.57;5.27;;;10.50;99.90;;;;;;5031186;28;20211;-65
2023/04/01 10:30:29;;;;;;;5.50;5.13;;;10.60;99.90;;;;;;5038240;28;20317;-66
2023/04/01 10:33:03;;;;;;;5.90;5.57;;;10.70;99.90;;;;;;5050836;28;20238;-65
2023/04/01 10:36:00;;;;;;;5.90;5.50;;;10.80;99.90;;;;;;5040882;28;20175;-65
2023/04/01 10:38:55;;;;;;;5.90;5.60;;;10.90;99.90;;;;;;5013932;28;20183;-65
2023/04/01 10:41:42;;;;;;;6.37;5.87;;;11.00;99.90;;;;;;5036495;28;20207;-66
2023/04/01 10:44:21;;;;;;;5.43;5.23;;;10.90;99.90;;;;;;5035175;28;20175;-66
2023/04/01 10:47:21;;;;;;;5.40;5.10;;;11.00;99.90;;;;;;5054152;28;20619;-66
2023/04/01 10:50:41;;;;;;;5.50;5.20;;;11.00;99.90;;;;;;4915923;29;20259;-66
2023/04/01 10:53:25;;;;;;;6.33;5.93;;;10.80;99.90;;;;;;4961387;28;20228;-66
2023/04/01 10:55:59;;;;;;;6.00;5.70;;;10.70;99.90;;;;;;5034987;28;20537;-66
2023/04/01 10:58:46;;;;;;;5.70;5.40;;;10.70;99.90;;;;;;5043658;28;20187;-66
2023/04/01 11:01:49;;;;;;;5.63;5.33;;;10.70;99.90;;;;;;5054601;28;20277;-66
2023/04/01 11:04:52;;;;;;;5.83;5.53;;;10.90;99.90;;;;;;5039268;28;20225;-66
2023/04/01 11:07:45;;;;;;;5.73;5.43;;;11.10;99.90;;;;;;5034920;28;20214;-66
2023/04/01 11:11:09;;;;;;;5.50;5.20;;;11.20;99.90;;;;;;5016518;28;20204;-67
2023/04/01 11:13:56;;;;;;;6.20;5.80;;;11.10;99.90;;;;;;4943762;29;20671;-66
2023/04/01 11:16:42;;;;;;;5.53;5.23;;;11.20;99.90;;;;;;5050442;28;20249;-67
2023/04/01 11:19:28;;;;;;;5.83;5.53;;;11.30;99.90;;;;;;5040728;28;20183;-66
2023/04/01 11:22:22;;;;;;;6.00;5.60;;;11.40;99.90;;;;;;5023626;28;20237;-66
2023/04/01 11:24:56;;;;;;;6.23;5.83;;;11.60;99.90;;;;;;5052258;28;20700;-66
2023/04/01 11:27:49;;;;;;;5.10;4.80;;;11.70;99.90;;;;;;5036535;28;20210;-66
2023/04/01 11:30:33;;;;;;;5.50;5.20;;;11.70;99.90;;;;;;5014189;28;20228;-65
2023/04/01 11:33:01;;;;;;;5.10;4.87;;;11.80;99.90;;;;;;5000074;28;20250;-66
2023/04/01 11:35:38;;;;;;;5.33;5.03;;;11.90;99.90;;;;;;5034439;28;20175;-66
2023/04/01 11:38:10;;;;;;;5.10;4.80;;;12.10;99.90;;;;;;5036298;28;22543;-66
2023/04/01 11:40:59;;;;;;;6.63;5.00;;;12.20;99.90;;;;;;5053653;28;20672;-65
2023/04/01 11:43:52;;;;;;;5.67;5.37;;;12.20;99.90;;;;;;5049118;28;20699;-65
2023/04/01 11:46:28;;;;;;;5.77;5.17;;;12.40;99.90;;;;;;5034252;28;20302;-65
2023/04/01 11:49:44;;;;;;;5.83;5.53;;;12.60;99.90;;;;;;5033324;28;20163;-65
2023/04/01 11:52:41;;;;;;;5.30;5.00;;;12.70;99.90;;;;;;5008349;28;20249;-65
2023/04/01 11:55:34;;;;;;;5.47;5.07;;;12.90;99.90;;;;;;5035091;28;20270;-65
2023/04/01 11:58:16;;;;;;;4.97;4.77;;;13.20;99.90;;;;;;5016041;28;20218;-65
2023/04/01 12:00:51;;;;;;;5.00;4.70;;;13.30;99.90;;;;;;5013670;28;20227;-65
2023/04/01 12:03:26;;;;;;;5.40;5.10;;;13.70;99.90;;;;;;5016834;28;20187;-64
2023/04/01 12:06:01;;;;;;;4.83;4.57;;;13.90;99.90;;;;;;5033458;28;20289;-65
2023/04/01 12:08:53;;;;;;;4.70;4.50;;;14.00;99.90;;;;;;5035707;28;20613;-65
2023/04/01 12:12:01;;;;;;;4.97;4.77;;;13.90;99.90;;;;;;5053219;28;20244;-65
2023/04/01 12:15:05;;;;;;;5.63;5.43;;;13.70;99.90;;;;;;5043527;28;20176;-65
2023/04/01 12:17:47;;;;;;;4.87;4.67;;;13.40;99.90;;;;;;5033617;28;20207;-66
2023/04/01 12:20:22;;;;;;;5.97;5.63;;;13.30;99.90;;;;;;5048559;28;20278;-65
2023/04/01 12:23:02;;;;;;;4.53;4.33;;;13.30;99.90;;;;;;5038043;28;20183;-64
2023/04/01 12:26:00;;;;;;;5.50;5.20;;;13.40;99.90;;;;;;5045849;28;20191;-65
2023/04/01 12:28:49;;;;;;;5.30;5.10;;;13.50;99.90;;;;;;5030114;28;20195;-65
2023/04/01 12:31:36;;;;;;;4.40;4.20;;;13.60;99.90;;;;;;5028822;28;20257;-65
2023/04/01 12:34:22;;;;;;;4.33;4.13;;;13.70;99.90;;;;;;4998601;28;20213;-65
2023/04/01 12:37:16;;;;;;;4.90;4.60;;;13.80;99.90;;;;;;5045391;28;20190;-65
2023/04/01 12:39:55;;;;;;;4.90;4.70;;;13.70;99.90;;;;;;5029167;28;20684;-65
2023/04/01 12:42:42;;;;;;;4.70;4.50;;;13.60;99.90;;;;;;5038039;28;20244;-65
2023/04/01 12:45:37;;;;;;;4.90;4.60;;;13.60;99.90;;;;;;5049367;28;20742;-65
2023/04/01 12:48:44;;;;;;;4.87;4.53;;;13.60;99.90;;;;;;5030188;28;20199;-65
2023/04/01 12:51:13;;;;;;;4.40;4.20;;;13.60;99.90;;;;;;5032130;28;20202;-65
2023/04/01 12:54:26;;;;;;;4.50;4.30;;;13.40;99.90;;;;;;5049244;28;20203;-65
2023/04/01 12:57:16;;;;;;;4.77;4.50;;;13.30;99.90;;;;;;5042396;28;20210;-64
2023/04/01 13:00:11;;;;;;;4.43;4.23;;;13.20;99.90;;;;;;5045524;28;20212;-65
2023/04/01 13:03:14;;;;;;;4.80;4.60;;;13.30;99.90;;;;;;5028505;28;20183;-65
2023/04/01 13:06:02;;;;;;;4.80;4.50;;;13.20;99.90;;;;;;5035087;28;20194;-65
2023/04/01 13:08:48;;;;;;;4.60;4.40;;;13.20;99.90;;;;;;5032503;28;20637;-65
2023/04/01 13:11:37;;;;;;;4.63;4.43;;;13.20;99.90;;;;;;5046345;28;20203;-65
2023/04/01 13:14:10;;;;;;;5.20;5.00;;;13.10;99.90;;;;;;5005710;28;20274;-65
2023/04/01 13:16:43;;;;;;;5.90;5.60;;;13.00;99.90;;;;;;5044357;28;20218;-65
2023/04/01 13:19:25;;;;;;;5.17;4.97;;;12.80;99.90;;;;;;5037648;28;20676;-65
2023/04/01 13:22:17;;;;;;;4.83;4.63;;;12.50;99.90;;;;;;5088734;28;20562;-66
2023/04/01 13:24:58;;;;;;;4.93;4.73;;;12.20;99.90;;;;;;5088734;28;20639;-65
2023/04/01 13:27:32;;;;;;;7.70;7.30;;;12.00;99.90;;;;;;5088757;28;20215;-66
2023/04/01 13:30:16;;;;;;;10.87;10.37;;;11.70;99.90;;;;;;5087981;28;20678;-65
2023/04/01 13:32:57;;;;;;;6.90;6.40;;;11.60;99.90;;;;;;5088946;28;20177;-66
2023/04/01 13:35:43;;;;;;;5.20;4.90;;;11.50;99.90;;;;;;5089583;28;20177;-66
2023/04/01 13:38:43;;;;;;;7.07;6.77;;;11.50;99.90;;;;;;5078190;28;20209;-65
2023/04/01 13:41:34;;;;;;;5.53;5.23;;;11.50;99.90;;;;;;5068050;28;20206;-65
2023/04/01 13:44:44;;;;;;;5.10;4.63;;;11.30;99.90;;;;;;5068699;28;20184;-66
2023/04/01 13:47:54;;;;;;;5.07;4.87;;;11.20;99.90;;;;;;5072041;28;20246;-66